Time,TemperatureF,DewpointF,PressureIn,WindDirection,WindDirectionDegrees,WindSpeedMPH,WindSpeedGustMPH,Humidity,HourlyPrecipIn,Conditions,Clouds,dailyrainin,SoftwareType,DateUTC
2013-01-16 00:04:00,20.0,17.0,29.88,North,9,0.0,0.0,92,0.00,,,0.00,TxWx,2013-01-16 06:04:00,
2013-01-16 00:09:00,20.1,17.0,29.88,North,10,0.0,0.0,92,0.00,,,0.00,TxWx,2013-01-16 06:09:00,
2013-01-16 00:14:00,19.8,17.0,29.88,North,8,0.0,0.0,91,0.00,,,0.00,TxWx,2013-01-16 06:14:00,
2013-01-16 00:19:00,19.6,17.0,29.88,North,7,0.0,0.0,91,0.00,,,0.00,TxWx,2013-01-16 06:19:00,
2013-01-16 00:24:00,19.5,17.0,29.88,North,8,0.0,0.0,91,0.00,,,0.00,TxWx,2013-01-16 06:24:00,
2013-01-16 00:29:00,19.4,16.0,29.87,North,8,0.0,0.0,91,0.00,,,0.00,TxWx,2013-01-16 06:29:00,
2013-01-16 00:35:00,19.3,16.0,29.87,North,10,0.0,0.0,91,0.00,,,0.00,TxWx,2013-01-16 06:35:00,
2013-01-16 00:40:00,19.3,16.0,29.87,North,10,0.0,0.0,92,0.00,,,0.00,TxWx,2013-01-16 06:40:00,
2013-01-16 00:45:00,19.3,16.0,29.88,NNE,17,0.0,0.0,92,0.00,,,0.00,TxWx,2013-01-16 06:45:00,
2013-01-16 00:50:00,19.0,16.0,29.88,North,9,0.0,0.0,91,0.00,,,0.00,TxWx,2013-01-16 06:50:00,
2013-01-16 00:55:00,19.6,17.0,29.88,NNE,13,0.0,0.0,92,0.00,,,0.00,TxWx,2013-01-16 06:55:00,
2013-01-16 01:00:00,19.5,16.0,29.87,North,8,0.0,0.0,92,0.00,,,0.00,TxWx,2013-01-16 07:00:00,
2013-01-16 01:06:00,19.8,17.0,29.87,North,7,0.0,0.0,92,0.00,,,0.00,TxWx,2013-01-16 07:06:00,
2013-01-16 01:11:00,19.6,17.0,29.86,North,10,0.0,0.0,91,0.00,,,0.00,TxWx,2013-01-16 07:11:00,
2013-01-16 01:16:00,19.6,17.0,29.86,North,11,0.0,0.0,91,0.00,,,0.00,TxWx,2013-01-16 07:16:00,
2013-01-16 01:21:00,19.5,17.0,29.86,North,10,0.0,0.0,91,0.00,,,0.00,TxWx,2013-01-16 07:21:00,
2013-01-16 01:26:00,19.6,17.0,29.85,North,8,0.0,0.0,91,0.00,,,0.00,TxWx,2013-01-16 07:26:00,
2013-01-16 01:32:00,19.7,17.0,29.85,North,5,0.0,0.0,91,0.00,,,0.00,TxWx,2013-01-16 07:32:00,
2013-01-16 01:37:00,19.8,17.0,29.86,North,5,0.0,0.0,91,0.00,,,0.00,TxWx,2013-01-16 07:37:00,
2013-01-16 01:42:00,19.7,17.0,29.86,North,9,0.0,0.0,90,0.00,,,0.00,TxWx,2013-01-16 07:42:00,
2013-01-16 01:47:00,19.5,16.0,29.86,NNW,337,0.0,0.0,90,0.00,,,0.00,TxWx,2013-01-16 07:47:00,
2013-01-16 01:53:00,19.2,16.0,29.85,NNW,337,0.0,0.0,90,0.00,,,0.00,TxWx,2013-01-16 07:53:00,
2013-01-16 01:58:00,19.0,16.0,29.85,NNW,328,0.0,0.0,90,0.00,,,0.00,TxWx,2013-01-16 07:58:00,
2013-01-16 02:03:00,19.2,16.0,29.86,NW,323,0.0,0.0,91,0.00,,,0.00,TxWx,2013-01-16 08:03:00,
2013-01-16 02:08:00,19.4,16.0,29.86,NW,318,0.0,0.0,91,0.00,,,0.00,TxWx,2013-01-16 08:08:00,
2013-01-16 02:13:00,19.5,17.0,29.86,NW,319,0.0,0.0,91,0.00,,,0.00,TxWx,2013-01-16 08:13:00,
2013-01-16 02:19:00,19.6,17.0,29.87,NW,325,0.0,0.0,91,0.00,,,0.00,TxWx,2013-01-16 08:19:00,
2013-01-16 02:24:00,19.6,17.0,29.87,NNW,329,0.0,0.0,91,0.00,,,0.00,TxWx,2013-01-16 08:24:00,
2013-01-16 02:29:00,19.8,17.0,29.87,NW,322,0.0,0.0,91,0.00,,,0.00,TxWx,2013-01-16 08:29:00,
2013-01-16 02:34:00,19.9,17.0,29.87,NW,322,0.0,0.0,91,0.00,,,0.00,TxWx,2013-01-16 08:34:00,
2013-01-16 02:39:00,20.0,17.0,29.87,NW,314,0.0,0.0,91,0.00,,,0.00,TxWx,2013-01-16 08:39:00,
2013-01-16 02:44:00,20.1,17.0,29.87,NW,322,0.0,0.0,91,0.00,,,0.00,TxWx,2013-01-16 08:44:00,
2013-01-16 02:49:00,20.3,17.0,29.87,NW,317,0.0,0.0,91,0.00,,,0.00,TxWx,2013-01-16 08:49:00,
2013-01-16 02:54:00,20.5,17.0,29.87,NW,325,0.0,0.0,91,0.00,,,0.00,TxWx,2013-01-16 08:54:00,
2013-01-16 02:59:00,20.6,18.0,29.87,NNW,329,0.0,0.0,91,0.00,,,0.00,TxWx,2013-01-16 08:59:00,
2013-01-16 03:04:00,20.7,18.0,29.87,NW,325,0.0,0.0,91,0.00,,,0.00,TxWx,2013-01-16 09:04:00,
2013-01-16 03:10:00,20.8,18.0,29.86,NW,326,0.0,0.0,91,0.00,,,0.00,TxWx,2013-01-16 09:10:00,
2013-01-16 03:15:00,20.8,18.0,29.86,NNW,328,0.0,0.0,91,0.00,,,0.00,TxWx,2013-01-16 09:15:00,
2013-01-16 03:20:00,20.9,18.0,29.86,NE,37,0.0,0.0,91,0.00,,,0.00,TxWx,2013-01-16 09:20:00,
2013-01-16 03:25:00,21.0,18.0,29.86,NNE,31,0.0,0.0,90,0.00,,,0.00,TxWx,2013-01-16 09:25:00,
2013-01-16 03:31:00,21.2,18.0,29.86,NNE,28,0.0,0.0,90,0.00,,,0.00,TxWx,2013-01-16 09:31:00,
2013-01-16 03:35:00,21.4,17.0,29.85,NNE,28,0.0,0.0,90,0.00,,,0.00,TxWx,2013-01-16 09:35:00,
2013-01-16 03:41:00,21.6,18.0,29.85,NNE,33,0.0,0.0,90,0.00,,,0.00,TxWx,2013-01-16 09:41:00,
2013-01-16 03:46:00,21.7,18.0,29.85,NE,35,0.0,0.0,89,0.00,,,0.00,TxWx,2013-01-16 09:46:00,
2013-01-16 03:51:00,21.7,18.0,29.85,NE,36,0.0,0.0,89,0.00,,,0.00,TxWx,2013-01-16 09:51:00,
2013-01-16 03:56:00,21.7,18.0,29.84,NE,34,0.0,0.0,89,0.00,,,0.00,TxWx,2013-01-16 09:56:00,
2013-01-16 04:01:00,21.7,18.0,29.84,NNE,33,0.0,0.0,89,0.00,,,0.00,TxWx,2013-01-16 10:01:00,
2013-01-16 04:07:00,21.7,18.0,29.84,NE,34,0.0,0.0,89,0.00,,,0.00,TxWx,2013-01-16 10:07:00,
2013-01-16 04:12:00,21.8,18.0,29.83,NE,34,0.0,0.0,89,0.00,,,0.00,TxWx,2013-01-16 10:12:00,
2013-01-16 04:17:00,21.9,18.0,29.83,NE,36,0.0,0.0,89,0.00,,,0.00,TxWx,2013-01-16 10:17:00,
2013-01-16 04:22:00,21.9,18.0,29.83,NE,34,0.0,0.0,88,0.00,,,0.00,TxWx,2013-01-16 10:22:00,
2013-01-16 04:27:00,22.1,18.0,29.83,NW,313,0.0,0.0,88,0.00,,,0.00,TxWx,2013-01-16 10:27:00,
2013-01-16 04:32:00,22.1,18.0,29.82,NNE,25,0.0,0.0,88,0.00,,,0.00,TxWx,2013-01-16 10:32:00,
2013-01-16 04:37:00,22.1,18.0,29.81,NNE,21,0.0,0.0,87,0.00,,,0.00,TxWx,2013-01-16 10:37:00,
2013-01-16 04:43:00,22.1,18.0,29.80,NNE,23,0.0,0.0,87,0.00,,,0.00,TxWx,2013-01-16 10:43:00,
2013-01-16 04:48:00,22.0,18.0,29.80,NNE,25,0.0,0.0,87,0.00,,,0.00,TxWx,2013-01-16 10:48:00,
2013-01-16 04:53:00,21.8,18.0,29.80,NNE,32,0.0,0.0,87,0.00,,,0.00,TxWx,2013-01-16 10:53:00,
2013-01-16 04:58:00,21.7,18.0,29.81,NNE,33,0.0,0.0,87,0.00,,,0.00,TxWx,2013-01-16 10:58:00,
2013-01-16 05:03:00,21.6,18.0,29.80,NE,48,0.0,0.0,87,0.00,,,0.00,TxWx,2013-01-16 11:03:00,
2013-01-16 05:08:00,21.6,18.0,29.81,NNE,30,0.0,0.0,87,0.00,,,0.00,TxWx,2013-01-16 11:08:00,
2013-01-16 05:13:00,21.5,17.0,29.80,NNE,33,0.0,0.0,87,0.00,,,0.00,TxWx,2013-01-16 11:13:00,
2013-01-16 05:18:00,21.3,17.0,29.80,NNE,21,0.0,0.0,87,0.00,,,0.00,TxWx,2013-01-16 11:18:00,
2013-01-16 05:23:00,21.1,17.0,29.80,NNE,22,0.0,0.0,87,0.00,,,0.00,TxWx,2013-01-16 11:23:00,
2013-01-16 05:28:00,21.0,17.0,29.80,NNE,32,0.0,0.0,87,0.00,,,0.00,TxWx,2013-01-16 11:28:00,
2013-01-16 05:34:00,21.1,17.0,29.79,NNE,24,0.0,0.0,87,0.00,,,0.00,TxWx,2013-01-16 11:34:00,
2013-01-16 05:39:00,21.0,17.0,29.79,NNE,22,0.0,0.0,87,0.00,,,0.00,TxWx,2013-01-16 11:39:00,
2013-01-16 05:44:00,20.9,17.0,29.78,NNE,24,0.0,0.0,87,0.00,,,0.00,TxWx,2013-01-16 11:44:00,
2013-01-16 05:49:00,20.8,17.0,29.78,NNE,25,2.4,2.7,88,0.00,,,0.00,TxWx,2013-01-16 11:49:00,
2013-01-16 05:54:00,20.7,17.0,29.78,NNE,22,0.0,0.0,88,0.00,,,0.00,TxWx,2013-01-16 11:54:00,
2013-01-16 06:00:00,20.6,17.0,29.77,NNE,26,0.0,0.0,88,0.00,,,0.00,TxWx,2013-01-16 12:00:00,
2013-01-16 06:05:00,20.6,17.0,29.77,NNE,28,3.3,3.6,88,0.00,,,0.00,TxWx,2013-01-16 12:05:00,
2013-01-16 06:10:00,20.7,17.0,29.77,NNE,29,0.0,0.0,88,0.00,,,0.00,TxWx,2013-01-16 12:10:00,
2013-01-16 06:15:00,20.5,17.0,29.76,NNE,23,0.0,0.0,88,0.00,,,0.00,TxWx,2013-01-16 12:15:00,
2013-01-16 06:20:00,20.4,16.0,29.76,NNE,30,3.6,3.6,88,0.00,,,0.00,TxWx,2013-01-16 12:20:00,
2013-01-16 06:25:00,20.3,16.0,29.76,NNE,30,3.9,4.2,88,0.00,,,0.00,TxWx,2013-01-16 12:25:00,
2013-01-16 06:31:00,20.3,16.0,29.76,NNE,28,5.4,5.4,88,0.00,,,0.00,TxWx,2013-01-16 12:31:00,
2013-01-16 06:36:00,20.3,16.0,29.77,NNE,31,2.4,3.9,88,0.00,,,0.00,TxWx,2013-01-16 12:36:00,
2013-01-16 06:41:00,20.3,16.0,29.77,NNE,32,7.2,7.5,89,0.00,,,0.00,TxWx,2013-01-16 12:41:00,
2013-01-16 06:46:00,20.2,16.0,29.77,NNE,29,4.5,4.5,89,0.00,,,0.00,TxWx,2013-01-16 12:46:00,
2013-01-16 06:51:00,20.1,16.0,29.77,NE,40,5.4,6.3,89,0.00,,,0.00,TxWx,2013-01-16 12:51:00,
2013-01-16 06:57:00,20.0,16.0,29.77,NNE,28,3.0,3.6,89,0.00,,,0.00,TxWx,2013-01-16 12:57:00,
2013-01-16 07:02:00,19.9,16.0,29.77,NNE,24,4.2,4.2,89,0.00,,,0.00,TxWx,2013-01-16 13:02:00,
2013-01-16 07:07:00,19.7,16.0,29.77,NNE,26,5.4,6.3,89,0.00,,,0.00,TxWx,2013-01-16 13:07:00,
2013-01-16 07:12:00,19.8,16.0,29.77,NNE,25,7.2,7.2,89,0.00,,,0.00,TxWx,2013-01-16 13:12:00,
2013-01-16 07:17:00,19.6,16.0,29.77,NNE,25,3.6,4.2,89,0.00,,,0.00,TxWx,2013-01-16 13:17:00,
2013-01-16 07:23:00,19.5,16.0,29.76,NNE,19,4.5,4.5,89,0.00,,,0.00,TxWx,2013-01-16 13:23:00,
2013-01-16 07:28:00,19.5,15.0,29.76,NNE,19,2.4,2.4,89,0.00,,,0.00,TxWx,2013-01-16 13:28:00,
2013-01-16 07:33:00,19.4,15.0,29.76,NNE,22,3.3,3.3,88,0.00,,,0.00,TxWx,2013-01-16 13:33:00,
2013-01-16 07:38:00,19.5,15.0,29.77,NNE,22,4.2,4.8,89,0.00,,,0.00,TxWx,2013-01-16 13:38:00,
2013-01-16 07:43:00,19.5,16.0,29.76,NNE,24,3.0,3.0,88,0.00,,,0.00,TxWx,2013-01-16 13:43:00,
2013-01-16 07:48:00,19.6,16.0,29.76,NNE,21,3.6,3.6,88,0.00,,,0.00,TxWx,2013-01-16 13:48:00,
2013-01-16 07:54:00,19.7,16.0,29.77,NNE,21,3.9,4.8,88,0.00,,,0.00,TxWx,2013-01-16 13:54:00,
2013-01-16 07:59:00,19.8,16.0,29.76,NNE,22,4.8,5.1,88,0.00,,,0.00,TxWx,2013-01-16 13:59:00,
2013-01-16 08:04:00,20.2,16.0,29.77,NNE,14,4.2,4.2,87,0.00,,,0.00,TxWx,2013-01-16 14:04:00,
2013-01-16 08:09:00,20.4,15.0,29.77,NNE,21,3.9,4.2,86,0.00,,,0.00,TxWx,2013-01-16 14:09:00,
2013-01-16 08:14:00,20.7,16.0,29.77,NNE,18,4.5,4.5,86,0.00,,,0.00,TxWx,2013-01-16 14:14:00,
2013-01-16 08:20:00,21.0,16.0,29.76,NNE,18,2.1,2.1,85,0.00,,,0.00,TxWx,2013-01-16 14:20:00,
2013-01-16 08:25:00,21.4,16.0,29.77,NNE,19,5.1,5.7,84,0.00,,,0.00,TxWx,2013-01-16 14:25:00,
2013-01-16 08:30:00,21.5,17.0,29.77,NNE,20,9.9,9.9,84,0.00,,,0.00,TxWx,2013-01-16 14:30:00,
2013-01-16 08:35:00,21.7,17.0,29.77,NNE,19,9.9,9.9,83,0.00,,,0.00,TxWx,2013-01-16 14:35:00,
2013-01-16 08:40:00,21.9,16.0,29.77,NNE,20,8.1,9.0,83,0.00,,,0.00,TxWx,2013-01-16 14:40:00,
2013-01-16 08:45:00,22.1,16.0,29.77,NNE,20,8.7,8.7,82,0.00,,,0.00,TxWx,2013-01-16 14:45:00,
2013-01-16 08:50:00,22.4,16.0,29.77,NNE,20,9.9,9.9,82,0.00,,,0.00,TxWx,2013-01-16 14:50:00,
2013-01-16 09:03:00,22.7,17.0,29.78,NNE,18,11.1,11.1,81,0.00,,,0.00,TxWx,2013-01-16 15:03:00,
2013-01-16 09:08:00,23.1,17.0,29.78,NNE,19,6.6,7.5,81,0.00,,,0.00,TxWx,2013-01-16 15:08:00,
2013-01-16 09:13:00,23.2,17.0,29.77,NNE,18,13.8,15.9,81,0.00,,,0.00,TxWx,2013-01-16 15:13:00,
2013-01-16 09:18:00,23.6,18.0,29.77,North,11,6.9,6.9,80,0.00,,,0.00,TxWx,2013-01-16 15:18:00,
2013-01-16 09:23:00,23.6,18.0,29.77,NNE,18,8.1,9.0,80,0.00,,,0.00,TxWx,2013-01-16 15:23:00,
2013-01-16 09:32:00,24.0,18.0,29.76,NNE,17,7.8,9.3,80,0.00,,,0.00,TxWx,2013-01-16 15:32:00,
2013-01-16 09:38:00,24.4,17.0,29.76,NNE,18,5.1,6.3,79,0.00,,,0.00,TxWx,2013-01-16 15:38:00,
2013-01-16 09:43:00,24.5,18.0,29.75,NNE,24,12.0,12.0,78,0.00,,,0.00,TxWx,2013-01-16 15:43:00,
2013-01-16 09:48:00,24.9,18.0,29.75,NNE,22,5.4,5.4,78,0.00,,,0.00,TxWx,2013-01-16 15:48:00,
2013-01-16 09:53:00,25.1,18.0,29.75,NNE,23,8.7,8.7,77,0.00,,,0.00,TxWx,2013-01-16 15:53:00,
2013-01-16 09:58:00,25.2,17.0,29.75,NNE,19,12.0,12.0,76,0.00,,,0.00,TxWx,2013-01-16 15:58:00,
2013-01-16 10:03:00,25.5,17.0,29.74,NNE,22,11.4,12.6,73,0.00,,,0.00,TxWx,2013-01-16 16:03:00,
2013-01-16 10:08:00,25.9,17.0,29.74,NNE,26,12.3,14.4,72,0.00,,,0.00,TxWx,2013-01-16 16:08:00,
2013-01-16 10:14:00,26.1,16.0,29.74,NNE,20,7.2,9.9,70,0.00,,,0.00,TxWx,2013-01-16 16:14:00,
2013-01-16 10:20:00,26.3,17.0,29.73,NNE,23,12.3,13.5,70,0.00,,,0.00,TxWx,2013-01-16 16:20:00,
2013-01-16 10:25:00,26.8,17.0,29.72,NNE,29,3.9,4.2,70,0.00,,,0.00,TxWx,2013-01-16 16:25:00,
2013-01-16 10:30:00,26.8,16.0,29.72,NNE,27,10.2,10.2,67,0.00,,,0.00,TxWx,2013-01-16 16:30:00,
2013-01-16 10:35:00,26.9,16.0,29.72,NNE,24,14.4,14.4,65,0.00,,,0.00,TxWx,2013-01-16 16:35:00,
2013-01-16 10:41:00,26.9,15.0,29.71,NNE,30,16.5,18.0,63,0.00,,,0.00,TxWx,2013-01-16 16:41:00,
2013-01-16 10:46:00,27.4,16.0,29.71,NNE,24,3.9,5.1,66,0.00,,,0.00,TxWx,2013-01-16 16:46:00,
2013-01-16 10:51:00,27.8,16.0,29.71,NNE,26,5.7,5.7,64,0.00,,,0.00,TxWx,2013-01-16 16:51:00,
2013-01-16 10:56:00,27.5,16.0,29.70,NNE,27,6.6,6.6,63,0.00,,,0.00,TxWx,2013-01-16 16:56:00,
2013-01-16 11:01:00,27.5,15.0,29.70,NNE,32,8.4,8.4,62,0.00,,,0.00,TxWx,2013-01-16 17:01:00,
2013-01-16 11:06:00,27.7,15.0,29.71,NE,40,17.1,17.1,62,0.00,,,0.00,TxWx,2013-01-16 17:06:00,
2013-01-16 11:11:00,28.4,16.0,29.70,NE,40,9.9,10.8,63,0.00,,,0.00,TxWx,2013-01-16 17:11:00,
2013-01-16 11:16:00,28.8,16.0,29.70,NE,37,6.0,6.0,62,0.00,,,0.00,TxWx,2013-01-16 17:16:00,
2013-01-16 11:22:00,28.4,14.0,29.70,NE,37,8.4,8.4,58,0.00,,,0.00,TxWx,2013-01-16 17:22:00,
2013-01-16 11:27:00,28.7,15.0,29.69,NNE,24,9.6,11.7,58,0.00,,,0.00,TxWx,2013-01-16 17:27:00,
2013-01-16 11:32:00,29.2,14.0,29.69,NNE,30,13.2,13.2,56,0.00,,,0.00,TxWx,2013-01-16 17:32:00,
2013-01-16 11:37:00,29.6,15.0,29.69,NNE,20,13.2,13.2,56,0.00,,,0.00,TxWx,2013-01-16 17:37:00,
2013-01-16 11:43:00,30.1,15.0,29.69,NNE,27,7.8,7.8,56,0.00,,,0.00,TxWx,2013-01-16 17:43:00,
2013-01-16 11:48:00,29.7,14.0,29.69,NE,34,12.9,12.9,53,0.00,,,0.00,TxWx,2013-01-16 17:48:00,
2013-01-16 11:53:00,29.9,13.0,29.69,NNE,24,8.4,9.6,52,0.00,,,0.00,TxWx,2013-01-16 17:53:00,
2013-01-16 11:59:00,29.5,12.0,29.68,NNE,33,15.9,15.9,50,0.00,,,0.00,TxWx,2013-01-16 17:59:00,
2013-01-16 12:04:00,30.1,13.0,29.67,NE,41,9.3,9.3,50,0.00,,,0.00,TxWx,2013-01-16 18:04:00,
2013-01-16 12:09:00,30.4,13.0,29.67,NNE,26,15.9,17.7,52,0.00,,,0.00,TxWx,2013-01-16 18:09:00,
2013-01-16 12:15:00,30.6,14.0,29.67,NE,39,12.3,12.6,52,0.00,,,0.00,TxWx,2013-01-16 18:15:00,
2013-01-16 12:20:00,30.3,13.0,29.67,NE,49,15.0,17.4,52,0.00,,,0.00,TxWx,2013-01-16 18:20:00,
2013-01-16 12:25:00,30.4,14.0,29.67,NE,46,14.4,15.6,53,0.00,,,0.00,TxWx,2013-01-16 18:25:00,
2013-01-16 12:30:00,30.7,15.0,29.67,NE,49,20.1,20.1,53,0.00,,,0.00,TxWx,2013-01-16 18:30:00,
2013-01-16 12:36:00,31.0,15.0,29.66,NE,42,16.5,18.6,53,0.00,,,0.00,TxWx,2013-01-16 18:36:00,
2013-01-16 12:41:00,30.9,14.0,29.66,NE,47,19.2,19.2,52,0.00,,,0.00,TxWx,2013-01-16 18:41:00,
2013-01-16 12:47:00,31.1,14.0,29.65,NE,40,12.9,12.9,52,0.00,,,0.00,TxWx,2013-01-16 18:47:00,
2013-01-16 12:52:00,31.3,15.0,29.65,NE,37,21.3,21.3,53,0.00,,,0.00,TxWx,2013-01-16 18:52:00,
2013-01-16 12:57:00,31.8,16.0,29.65,East,90,18.0,18.6,53,0.00,,,0.00,TxWx,2013-01-16 18:57:00,
2013-01-16 13:02:00,32.1,16.0,29.65,NE,48,10.8,12.3,53,0.00,,,0.00,TxWx,2013-01-16 19:02:00,
2013-01-16 13:07:00,32.0,16.0,29.65,NE,40,18.0,18.6,54,0.00,,,0.00,TxWx,2013-01-16 19:07:00,
2013-01-16 13:13:00,32.1,16.0,29.65,NE,50,19.5,19.5,53,0.00,,,0.00,TxWx,2013-01-16 19:13:00,
2013-01-16 13:18:00,32.1,16.0,29.65,NE,51,16.5,19.2,53,0.00,,,0.00,TxWx,2013-01-16 19:18:00,
2013-01-16 13:23:00,32.6,17.0,29.65,NE,37,11.7,11.7,54,0.00,,,0.00,TxWx,2013-01-16 19:23:00,
2013-01-16 13:28:00,33.0,17.0,29.64,NE,43,6.9,7.5,54,0.00,,,0.00,TxWx,2013-01-16 19:28:00,
2013-01-16 13:34:00,32.8,17.0,29.64,NE,41,18.3,19.2,53,0.00,,,0.00,TxWx,2013-01-16 19:34:00,
2013-01-16 13:39:00,33.0,17.0,29.64,NE,44,12.0,17.1,54,0.00,,,0.00,TxWx,2013-01-16 19:39:00,
2013-01-16 13:44:00,33.0,17.0,29.64,NE,45,14.7,16.8,54,0.00,,,0.00,TxWx,2013-01-16 19:44:00,
2013-01-16 13:49:00,33.2,17.0,29.64,NE,41,11.7,12.0,54,0.00,,,0.00,TxWx,2013-01-16 19:49:00,
2013-01-16 13:54:00,33.4,17.0,29.64,NE,44,21.0,21.0,54,0.00,,,0.00,TxWx,2013-01-16 19:54:00,
2013-01-16 13:59:00,33.4,17.0,29.64,NE,44,14.1,15.9,55,0.00,,,0.00,TxWx,2013-01-16 19:59:00,
2013-01-16 14:04:00,33.5,17.0,29.64,NE,44,11.4,11.4,55,0.00,,,0.00,TxWx,2013-01-16 20:04:00,
2013-01-16 14:10:00,33.7,18.0,29.63,NE,48,15.0,15.0,55,0.00,,,0.00,TxWx,2013-01-16 20:10:00,
2013-01-16 14:15:00,33.6,18.0,29.63,WSW,254,16.2,17.7,54,0.00,,,0.00,TxWx,2013-01-16 20:15:00,
2013-01-16 14:20:00,34.1,19.0,29.63,WNW,284,12.0,12.0,55,0.00,,,0.00,TxWx,2013-01-16 20:20:00,
2013-01-16 14:25:00,33.6,19.0,29.63,NE,34,9.0,9.9,55,0.00,,,0.00,TxWx,2013-01-16 20:25:00,
2013-01-16 14:31:00,34.0,19.0,29.64,NE,47,9.9,10.2,55,0.00,,,0.00,TxWx,2013-01-16 20:31:00,
2013-01-16 14:36:00,34.1,19.0,29.64,NE,43,14.4,14.4,55,0.00,,,0.00,TxWx,2013-01-16 20:36:00,
2013-01-16 14:41:00,33.9,19.0,29.65,NE,46,21.0,27.6,55,0.00,,,0.00,TxWx,2013-01-16 20:41:00,
2013-01-16 14:46:00,33.9,19.0,29.64,NE,45,9.9,10.8,55,0.00,,,0.00,TxWx,2013-01-16 20:46:00,
2013-01-16 14:51:00,34.2,19.0,29.65,NE,42,8.1,10.8,56,0.00,,,0.00,TxWx,2013-01-16 20:51:00,
2013-01-16 14:57:00,34.2,19.0,29.65,NE,40,9.9,12.3,56,0.00,,,0.00,TxWx,2013-01-16 20:57:00,
2013-01-16 15:03:00,34.2,19.0,29.65,NE,37,13.5,13.8,56,0.00,,,0.00,TxWx,2013-01-16 21:03:00,
2013-01-16 15:08:00,34.0,19.0,29.65,NE,43,12.9,15.0,57,0.00,,,0.00,TxWx,2013-01-16 21:08:00,
2013-01-16 15:13:00,33.8,19.0,29.66,NE,46,16.2,16.2,56,0.00,,,0.00,TxWx,2013-01-16 21:13:00,
2013-01-16 15:18:00,33.7,19.0,29.66,NE,47,8.7,10.2,57,0.00,,,0.00,TxWx,2013-01-16 21:18:00,
2013-01-16 15:24:00,33.7,20.0,29.66,NE,51,14.7,15.6,58,0.00,,,0.00,TxWx,2013-01-16 21:24:00,
2013-01-16 15:29:00,33.7,20.0,29.66,NE,50,10.2,12.9,59,0.00,,,0.00,TxWx,2013-01-16 21:29:00,
2013-01-16 15:34:00,33.7,20.0,29.67,NE,47,14.1,14.1,59,0.00,,,0.00,TxWx,2013-01-16 21:34:00,
2013-01-16 15:39:00,33.7,20.0,29.67,NNE,29,6.3,7.8,59,0.00,,,0.00,TxWx,2013-01-16 21:39:00,
2013-01-16 15:44:00,33.6,20.0,29.67,NE,43,16.8,22.5,59,0.00,,,0.00,TxWx,2013-01-16 21:44:00,
2013-01-16 15:50:00,33.6,20.0,29.68,NE,47,14.1,14.4,59,0.00,,,0.00,TxWx,2013-01-16 21:50:00,
2013-01-16 15:55:00,33.6,21.0,29.68,NE,42,13.8,13.8,60,0.00,,,0.00,TxWx,2013-01-16 21:55:00,
2013-01-16 16:01:00,33.6,21.0,29.68,NE,48,13.2,13.2,61,0.00,,,0.00,TxWx,2013-01-16 22:01:00,
2013-01-16 16:06:00,33.5,21.0,29.68,NE,39,12.6,16.5,61,0.00,,,0.00,TxWx,2013-01-16 22:06:00,
2013-01-16 16:11:00,33.5,21.0,29.68,WSW,244,14.4,14.4,62,0.00,,,0.00,TxWx,2013-01-16 22:11:00,
2013-01-16 16:17:00,33.4,21.0,29.68,NE,50,12.9,12.9,63,0.00,,,0.00,TxWx,2013-01-16 22:17:00,
2013-01-16 16:22:00,33.1,22.0,29.68,NE,40,9.6,9.6,66,0.00,,,0.00,TxWx,2013-01-16 22:22:00,
2013-01-16 16:27:00,32.7,22.0,29.68,NE,41,12.6,14.4,68,0.00,,,0.00,TxWx,2013-01-16 22:27:00,
2013-01-16 16:32:00,32.7,23.0,29.68,NE,36,9.9,11.1,69,0.00,,,0.00,TxWx,2013-01-16 22:32:00,
2013-01-16 16:37:00,32.7,23.0,29.69,NE,44,10.2,10.2,70,0.00,,,0.00,TxWx,2013-01-16 22:37:00,
2013-01-16 16:43:00,32.8,23.0,29.69,NE,35,12.6,13.8,69,0.00,,,0.00,TxWx,2013-01-16 22:43:00,
2013-01-16 16:48:00,33.0,23.0,29.69,NE,39,12.0,13.2,69,0.00,,,0.00,TxWx,2013-01-16 22:48:00,
2013-01-16 16:53:00,33.0,23.0,29.68,NNE,29,12.3,12.3,68,0.00,,,0.00,TxWx,2013-01-16 22:53:00,
2013-01-16 16:58:00,33.1,22.0,29.69,NE,41,6.6,6.6,68,0.00,,,0.00,TxWx,2013-01-16 22:58:00,
2013-01-16 17:03:00,33.2,22.0,29.69,NE,35,12.9,12.9,67,0.00,,,0.00,TxWx,2013-01-16 23:03:00,
2013-01-16 17:08:00,33.4,22.0,29.69,NNE,32,5.4,5.4,66,0.00,,,0.00,TxWx,2013-01-16 23:08:00,
2013-01-16 17:14:00,33.5,22.0,29.69,NNE,31,17.7,17.7,66,0.00,,,0.00,TxWx,2013-01-16 23:14:00,
2013-01-16 17:19:00,33.5,23.0,29.70,NE,35,18.3,18.3,66,0.00,,,0.00,TxWx,2013-01-16 23:19:00,
2013-01-16 17:24:00,33.5,23.0,29.70,NE,36,10.8,10.8,66,0.00,,,0.00,TxWx,2013-01-16 23:24:00,
2013-01-16 17:29:00,33.5,23.0,29.70,NE,39,17.1,17.1,66,0.00,,,0.00,TxWx,2013-01-16 23:29:00,
2013-01-16 17:35:00,33.5,23.0,29.70,NE,37,7.2,9.9,66,0.00,,,0.00,TxWx,2013-01-16 23:35:00,
2013-01-16 17:40:00,33.5,23.0,29.70,NE,36,8.7,9.0,67,0.00,,,0.00,TxWx,2013-01-16 23:40:00,
2013-01-16 17:45:00,33.6,23.0,29.70,NE,39,10.2,11.1,67,0.00,,,0.00,TxWx,2013-01-16 23:45:00,
2013-01-16 17:50:00,33.6,23.0,29.71,NE,47,12.3,16.8,67,0.00,,,0.00,TxWx,2013-01-16 23:50:00,
2013-01-16 17:56:00,33.6,23.0,29.71,NE,36,10.5,10.8,68,0.00,,,0.00,TxWx,2013-01-16 23:56:00,
2013-01-16 18:01:00,33.6,23.0,29.71,NNE,33,8.1,8.1,68,0.00,,,0.00,TxWx,2013-01-17 00:01:00,
2013-01-16 18:06:00,33.6,24.0,29.72,NNE,33,10.2,10.5,68,0.00,,,0.00,TxWx,2013-01-17 00:06:00,
2013-01-16 18:11:00,33.7,24.0,29.72,NW,318,12.0,12.9,68,0.00,,,0.00,TxWx,2013-01-17 00:11:00,
2013-01-16 18:16:00,33.4,23.0,29.72,NNE,33,14.4,15.0,71,0.00,,,0.00,TxWx,2013-01-17 00:16:00,
2013-01-16 18:22:00,33.4,23.0,29.72,NE,34,17.4,19.5,70,0.00,,,0.00,TxWx,2013-01-17 00:22:00,
2013-01-16 18:27:00,33.4,23.0,29.72,NE,47,17.7,19.8,70,0.00,,,0.00,TxWx,2013-01-17 00:27:00,
2013-01-16 18:32:00,33.4,23.0,29.73,NE,36,19.8,20.7,70,0.00,,,0.00,TxWx,2013-01-17 00:32:00,
2013-01-16 18:37:00,33.3,23.0,29.73,NE,34,10.2,15.9,70,0.00,,,0.00,TxWx,2013-01-17 00:37:00,
2013-01-16 18:42:00,33.2,23.0,29.72,NE,38,13.8,13.8,71,0.00,,,0.00,TxWx,2013-01-17 00:42:00,
2013-01-16 18:47:00,33.2,24.0,29.72,NE,50,10.5,13.2,71,0.00,,,0.00,TxWx,2013-01-17 00:47:00,
2013-01-16 18:53:00,33.2,24.0,29.73,NE,41,16.8,16.8,71,0.00,,,0.00,TxWx,2013-01-17 00:53:00,
2013-01-16 18:58:00,33.1,24.0,29.73,NE,40,13.2,15.3,71,0.00,,,0.00,TxWx,2013-01-17 00:58:00,
2013-01-16 19:03:00,33.1,24.0,29.73,NE,38,6.9,6.9,72,0.00,,,0.00,TxWx,2013-01-17 01:03:00,
2013-01-16 19:09:00,33.1,24.0,29.74,NE,40,10.2,11.4,72,0.00,,,0.00,TxWx,2013-01-17 01:09:00,
2013-01-16 19:15:00,33.1,24.0,29.74,ENE,77,9.3,9.3,72,0.00,,,0.00,TxWx,2013-01-17 01:15:00,
2013-01-16 19:20:00,33.1,24.0,29.74,NNE,33,9.3,9.3,72,0.00,,,0.00,TxWx,2013-01-17 01:20:00,
2013-01-16 19:25:00,33.1,24.0,29.74,NE,35,12.9,14.4,72,0.00,,,0.00,TxWx,2013-01-17 01:25:00,
2013-01-16 19:31:00,33.1,24.0,29.75,NE,50,13.2,13.2,72,0.00,,,0.00,TxWx,2013-01-17 01:31:00,
2013-01-16 19:36:00,33.1,24.0,29.75,NE,38,12.6,12.6,72,0.00,,,0.00,TxWx,2013-01-17 01:36:00,
2013-01-16 19:41:00,33.1,24.0,29.75,NW,313,13.8,17.7,72,0.00,,,0.00,TxWx,2013-01-17 01:41:00,
2013-01-16 19:47:00,33.1,24.0,29.75,NE,48,9.9,10.2,72,0.00,,,0.00,TxWx,2013-01-17 01:47:00,
2013-01-16 19:52:00,33.1,24.0,29.75,NW,314,8.4,8.7,73,0.00,,,0.00,TxWx,2013-01-17 01:52:00,
2013-01-16 19:57:00,33.2,24.0,29.76,NE,49,9.0,9.9,73,0.00,,,0.00,TxWx,2013-01-17 01:57:00,
2013-01-16 20:03:00,33.2,24.0,29.76,SW,234,11.7,12.6,73,0.00,,,0.00,TxWx,2013-01-17 02:03:00,
2013-01-16 20:08:00,33.2,24.0,29.75,NE,47,8.7,9.6,73,0.00,,,0.00,TxWx,2013-01-17 02:08:00,
2013-01-16 20:13:00,33.2,24.0,29.76,NW,313,8.7,9.6,73,0.00,,,0.00,TxWx,2013-01-17 02:13:00,
2013-01-16 20:18:00,33.2,24.0,29.76,NE,35,6.3,6.3,73,0.00,,,0.00,TxWx,2013-01-17 02:18:00,
2013-01-16 20:23:00,33.1,24.0,29.76,NE,47,8.1,8.7,74,0.00,,,0.00,TxWx,2013-01-17 02:23:00,
2013-01-16 20:29:00,33.1,24.0,29.76,NE,46,5.7,5.7,74,0.00,,,0.00,TxWx,2013-01-17 02:29:00,
2013-01-16 20:34:00,33.1,24.0,29.77,NE,46,8.1,8.1,74,0.00,,,0.00,TxWx,2013-01-17 02:34:00,
2013-01-16 20:40:00,33.1,24.0,29.77,NE,48,7.8,7.8,74,0.00,,,0.00,TxWx,2013-01-17 02:40:00,
2013-01-16 20:45:00,33.1,25.0,29.77,NE,37,7.8,7.8,74,0.00,,,0.00,TxWx,2013-01-17 02:45:00,
2013-01-16 20:51:00,33.1,25.0,29.78,NE,36,5.4,5.4,74,0.00,,,0.00,TxWx,2013-01-17 02:51:00,
2013-01-16 20:57:00,33.0,25.0,29.78,NE,35,8.7,8.7,75,0.00,,,0.00,TxWx,2013-01-17 02:57:00,
2013-01-16 21:02:00,33.0,25.0,29.78,NNE,32,6.9,8.4,75,0.00,,,0.00,TxWx,2013-01-17 03:02:00,
2013-01-16 21:09:00,32.8,25.0,29.77,NE,48,5.4,5.4,75,0.00,,,0.00,TxWx,2013-01-17 03:09:00,
2013-01-16 21:14:00,32.8,25.0,29.78,NE,48,6.9,6.9,75,0.00,,,0.00,TxWx,2013-01-17 03:14:00,
2013-01-16 21:19:00,32.7,25.0,29.78,NE,48,7.5,7.5,75,0.00,,,0.00,TxWx,2013-01-17 03:19:00,
2013-01-16 21:25:00,32.9,25.0,29.78,NNE,33,6.3,7.8,75,0.00,,,0.00,TxWx,2013-01-17 03:25:00,
2013-01-16 21:30:00,32.9,25.0,29.78,NE,50,9.6,9.9,75,0.00,,,0.00,TxWx,2013-01-17 03:30:00,
2013-01-16 21:36:00,33.0,25.0,29.78,NNE,30,5.1,6.0,74,0.00,,,0.00,TxWx,2013-01-17 03:36:00,
2013-01-16 21:41:00,33.2,24.0,29.78,NE,47,7.8,8.4,74,0.00,,,0.00,TxWx,2013-01-17 03:41:00,
2013-01-16 21:47:00,33.3,24.0,29.79,NNE,28,5.4,6.6,73,0.00,,,0.00,TxWx,2013-01-17 03:47:00,
2013-01-16 21:52:00,33.3,24.0,29.79,NNE,30,6.9,7.8,73,0.00,,,0.00,TxWx,2013-01-17 03:52:00,
2013-01-16 21:58:00,33.4,24.0,29.78,NW,314,10.5,10.5,72,0.00,,,0.00,TxWx,2013-01-17 03:58:00,
2013-01-16 22:03:00,33.3,24.0,29.79,NNE,21,12.9,12.9,72,0.00,,,0.00,TxWx,2013-01-17 04:03:00,
2013-01-16 22:08:00,33.3,24.0,29.79,East,84,10.2,11.1,72,0.00,,,0.00,TxWx,2013-01-17 04:08:00,
2013-01-16 22:13:00,33.3,24.0,29.78,NW,316,12.9,12.9,72,0.00,,,0.00,TxWx,2013-01-17 04:13:00,
2013-01-16 22:19:00,33.4,24.0,29.79,SSW,213,9.9,10.8,72,0.00,,,0.00,TxWx,2013-01-17 04:19:00,
2013-01-16 22:24:00,33.4,24.0,29.79,South,190,10.5,11.4,72,0.00,,,0.00,TxWx,2013-01-17 04:24:00,
2013-01-16 22:29:00,33.4,24.0,29.79,NW,318,6.6,7.5,72,0.00,,,0.00,TxWx,2013-01-17 04:29:00,
2013-01-16 22:34:00,33.4,24.0,29.79,NNE,32,5.7,6.0,72,0.00,,,0.00,TxWx,2013-01-17 04:34:00,
2013-01-16 22:40:00,33.4,24.0,29.79,NE,35,6.6,6.6,72,0.00,,,0.00,TxWx,2013-01-17 04:40:00,
2013-01-16 22:45:00,33.3,24.0,29.80,NNE,30,4.8,5.4,72,0.00,,,0.00,TxWx,2013-01-17 04:45:00,
2013-01-16 22:50:00,33.3,24.0,29.80,NNE,28,6.0,6.9,72,0.00,,,0.00,TxWx,2013-01-17 04:50:00,
2013-01-16 22:56:00,33.2,24.0,29.80,NNE,27,7.8,8.4,73,0.00,,,0.00,TxWx,2013-01-17 04:56:00,
2013-01-16 23:00:00,33.2,24.0,29.80,NNE,28,7.2,7.2,73,0.00,,,0.00,TxWx,2013-01-17 05:00:00,
2013-01-16 23:01:00,33.2,24.0,29.80,NNE,27,5.4,5.4,73,0.00,,,0.00,TxWx,2013-01-17 05:01:00,
2013-01-16 23:03:00,33.2,24.0,29.80,NW,319,3.0,3.6,73,0.00,,,0.00,TxWx,2013-01-17 05:03:00,
2013-01-16 23:07:00,33.2,24.0,29.80,NNE,28,7.8,8.1,73,0.00,,,0.00,TxWx,2013-01-17 05:07:00,
2013-01-16 23:12:00,33.1,24.0,29.80,NNE,25,5.4,5.4,73,0.00,,,0.00,TxWx,2013-01-17 05:12:00,
2013-01-16 23:17:00,33.1,24.0,29.80,NNE,25,5.4,5.4,73,0.00,,,0.00,TxWx,2013-01-17 05:17:00,
2013-01-16 23:22:00,33.1,24.0,29.80,NNE,24,1.5,1.5,74,0.00,,,0.00,TxWx,2013-01-17 05:22:00,
2013-01-16 23:27:00,33.0,24.0,29.81,NNE,23,5.7,7.2,74,0.00,,,0.00,TxWx,2013-01-17 05:27:00,
2013-01-16 23:33:00,33.0,24.0,29.81,NNE,27,6.0,6.0,74,0.00,,,0.00,TxWx,2013-01-17 05:33:00,
2013-01-16 23:38:00,33.0,25.0,29.81,NNE,30,8.1,8.1,74,0.00,,,0.00,TxWx,2013-01-17 05:38:00,
2013-01-16 23:44:00,33.0,25.0,29.81,NE,38,6.6,6.6,74,0.00,,,0.00,TxWx,2013-01-17 05:44:00,
2013-01-16 23:49:00,33.0,25.0,29.81,NNE,33,3.9,3.9,74,0.00,,,0.00,TxWx,2013-01-17 05:49:00,
2013-01-16 23:54:00,32.9,25.0,29.82,NNE,29,6.6,6.6,75,0.00,,,0.00,TxWx,2013-01-17 05:54:00,
2013-01-16 23:59:00,32.9,25.0,29.82,ESE,109,4.8,5.4,75,0.00,,,0.00,TxWx,2013-01-17 05:59:00,